createdAt,value
2018-05-25T00:01:05.657Z,16.00
2018-05-25T00:03:33.212Z,17.03
2018-05-25T00:06:00.840Z,18.47
2018-05-25T00:08:28.387Z,18.67
2018-05-25T00:10:55.921Z,21.17
2018-05-25T00:13:23.500Z,19.93
2018-05-25T00:15:51.033Z,23.20
2018-05-25T00:18:18.608Z,22.93
2018-05-25T00:20:46.129Z,26.83
2018-05-25T00:23:14.443Z,24.70
2018-05-25T00:25:42.740Z,26.90
2018-05-25T00:28:10.304Z,25.03
2018-05-25T00:30:37.837Z,23.40
2018-05-25T00:33:05.383Z,28.27
2018-05-25T00:35:33.710Z,27.50
2018-05-25T00:38:01.256Z,28.93
2018-05-25T00:40:28.787Z,24.87
2018-05-25T00:42:56.332Z,26.67
2018-05-25T00:45:23.877Z,27.00
2018-05-25T00:47:51.423Z,28.37
2018-05-25T00:50:19.737Z,27.37
2018-05-25T00:52:47.279Z,28.47
2018-05-25T00:55:26.641Z,31.03
2018-05-25T00:57:54.204Z,26.80
2018-05-25T01:00:21.760Z,32.80
2018-05-25T01:02:49.300Z,32.33
2018-05-25T01:05:16.837Z,30.87
2018-05-25T01:07:44.395Z,29.77
2018-05-25T01:10:12.699Z,29.53
2018-05-25T01:12:40.265Z,30.10
2018-05-25T01:15:08.577Z,31.90
2018-05-25T01:17:36.902Z,32.30
2018-05-25T01:20:04.478Z,31.47
2018-05-25T01:22:32.847Z,33.80
2018-05-25T01:25:00.385Z,32.30
2018-05-25T01:27:27.943Z,30.77
2018-05-25T01:29:55.505Z,29.90
2018-05-25T01:32:23.852Z,31.40
2018-05-25T01:34:51.838Z,30.00
2018-05-25T01:37:19.392Z,30.67
2018-05-25T01:39:47.708Z,29.23
2018-05-25T01:42:15.261Z,29.87
2018-05-25T01:44:42.792Z,28.43
2018-05-25T01:47:10.342Z,29.07
2018-05-25T01:49:38.668Z,26.27
2018-05-25T01:52:06.249Z,27.20
2018-05-25T01:54:33.808Z,28.70
2018-05-25T01:57:01.357Z,26.97
2018-05-25T01:59:28.899Z,21.97
2018-05-25T02:01:56.440Z,24.00
2018-05-25T02:04:24.020Z,22.63
2018-05-25T02:06:51.858Z,23.73
2018-05-25T02:09:20.169Z,22.03
2018-05-25T02:11:47.734Z,22.57
2018-05-25T02:14:15.256Z,20.63
2018-05-25T02:16:42.806Z,21.83
2018-05-25T02:19:11.117Z,22.87
2018-05-25T02:21:38.651Z,19.47
2018-05-25T02:24:06.213Z,23.67
2018-05-25T02:26:33.790Z,27.40
2018-05-25T02:29:01.947Z,27.37
2018-05-25T02:31:30.252Z,23.70
2018-05-25T02:33:58.579Z,26.33
2018-05-25T02:36:26.875Z,27.63
2018-05-25T02:38:54.420Z,27.33
2018-05-25T02:41:21.972Z,27.87
2018-05-25T02:43:49.516Z,27.87
2018-05-25T02:46:17.813Z,30.17
2018-05-25T02:48:46.128Z,29.73
2018-05-25T02:51:14.429Z,32.37
2018-05-25T02:53:42.739Z,31.27
2018-05-25T02:56:10.312Z,29.80
2018-05-25T02:58:38.632Z,23.60
2018-05-25T03:01:06.179Z,25.63
2018-05-25T03:03:33.725Z,22.40
2018-05-25T03:06:01.262Z,20.43
2018-05-25T03:08:29.568Z,19.80
2018-05-25T03:10:57.099Z,23.47
2018-05-25T03:13:24.652Z,25.07
2018-05-25T03:15:52.186Z,28.17
2018-05-25T03:18:19.725Z,28.17
2018-05-25T03:20:48.029Z,22.10
2018-05-25T03:23:15.577Z,23.07
2018-05-25T03:25:43.109Z,26.83
2018-05-25T03:28:10.649Z,28.73
2018-05-25T03:30:38.199Z,30.07
2018-05-25T03:33:05.769Z,26.10
2018-05-25T03:35:33.307Z,29.53
2018-05-25T03:38:01.624Z,28.03
2018-05-25T03:40:29.167Z,27.90
2018-05-25T03:42:56.707Z,29.07
2018-05-25T03:45:25.942Z,24.70
2018-05-25T03:47:53.637Z,25.47
2018-05-25T03:50:21.184Z,23.33
2018-05-25T03:52:48.744Z,25.07
2018-05-25T03:55:16.549Z,22.07
2018-05-25T03:57:44.909Z,25.70
2018-05-25T04:00:24.429Z,27.73
2018-05-25T04:02:52.012Z,28.53
2018-05-25T04:05:20.431Z,31.97
2018-05-25T04:07:47.981Z,33.97
2018-05-25T04:10:22.674Z,31.20
2018-05-25T04:12:50.305Z,29.73
2018-05-25T04:15:17.858Z,32.30
2018-05-25T04:17:45.445Z,29.97
2018-05-25T04:20:13.655Z,29.77
2018-05-25T04:23:20.355Z,30.70
2018-05-25T04:25:49.604Z,33.03
2018-05-25T04:28:17.161Z,28.03
2018-05-25T04:30:44.767Z,36.10
2018-05-25T04:33:12.308Z,27.80
2018-05-25T04:35:40.372Z,29.63
2018-05-25T04:38:07.893Z,32.00
2018-05-25T04:40:35.441Z,33.13
2018-05-25T04:43:06.247Z,32.17
2018-05-25T04:45:34.825Z,30.73
2018-05-25T04:48:02.392Z,25.83
2018-05-25T04:50:29.947Z,29.77
2018-05-25T04:52:57.489Z,29.80
2018-05-25T04:55:25.049Z,28.90
2018-05-25T04:57:52.687Z,28.07
2018-05-25T05:00:20.256Z,29.17
2018-05-25T05:02:48.613Z,29.37
2018-05-25T05:05:16.182Z,27.83
2018-05-25T05:07:43.744Z,29.00
2018-05-25T05:10:11.352Z,31.90
2018-05-25T05:12:38.933Z,32.13
2018-05-25T05:15:06.532Z,34.23
2018-05-25T05:17:34.898Z,35.10
2018-05-25T05:20:02.453Z,36.83
2018-05-25T05:22:30.044Z,35.47
2018-05-25T05:24:57.636Z,35.63
2018-05-25T05:27:26.413Z,32.37
2018-05-25T05:29:53.990Z,35.03
2018-05-25T05:32:21.596Z,33.97
2018-05-25T05:34:49.161Z,36.30
2018-05-25T05:37:17.057Z,38.83
2018-05-25T05:39:44.640Z,33.40
2018-05-25T05:42:13.379Z,35.43
2018-05-25T05:44:40.989Z,36.63
2018-05-25T05:47:09.472Z,35.93
2018-05-25T05:49:37.049Z,39.87
2018-05-25T05:52:04.612Z,43.70
2018-05-25T05:54:32.927Z,42.37
2018-05-25T05:57:01.190Z,41.07
2018-05-25T05:59:28.753Z,42.00
2018-05-25T06:01:58.356Z,44.70
2018-05-25T06:04:25.971Z,43.23
2018-05-25T06:06:54.957Z,39.77
2018-05-25T06:09:22.546Z,38.10
2018-05-25T06:11:51.856Z,40.77
2018-05-25T06:14:19.440Z,39.60
2018-05-25T06:16:46.991Z,37.20
2018-05-25T06:19:14.624Z,42.20
2018-05-25T06:21:42.204Z,43.90
2018-05-25T06:24:09.776Z,42.37
2018-05-25T06:26:37.343Z,34.20
2018-05-25T06:29:04.925Z,29.30
2018-05-25T06:31:33.403Z,32.50
2018-05-25T06:34:01.014Z,30.47
2018-05-25T06:36:29.847Z,30.50
2018-05-25T06:38:57.482Z,28.87
2018-05-25T06:41:25.057Z,31.07
2018-05-25T06:43:52.607Z,29.30
2018-05-25T06:46:22.153Z,28.53
2018-05-25T06:48:49.729Z,32.07
2018-05-25T06:51:19.019Z,29.87
2018-05-25T06:53:46.570Z,29.73
2018-05-25T06:56:14.136Z,27.43
2018-05-25T06:58:41.688Z,26.90
2018-05-25T07:01:09.276Z,30.07
2018-05-25T07:03:37.590Z,26.43
2018-05-25T07:06:05.136Z,27.97
2018-05-25T07:08:32.669Z,34.67
2018-05-25T07:11:02.167Z,29.47
2018-05-25T07:13:29.739Z,28.30
2018-05-25T07:15:57.457Z,27.20
2018-05-25T07:18:24.988Z,24.43
2018-05-25T07:20:52.520Z,26.87
2018-05-25T07:23:20.165Z,27.20
2018-05-25T07:25:49.159Z,24.37
2018-05-25T07:28:17.573Z,23.50
2018-05-25T07:30:45.151Z,24.63
2018-05-25T07:33:12.729Z,25.70
2018-05-25T07:35:42.098Z,26.67
2018-05-25T07:38:09.731Z,24.77
2018-05-25T07:40:38.365Z,26.80
2018-05-25T07:43:05.967Z,23.77
2018-05-25T07:45:34.329Z,21.63
2018-05-25T07:48:01.909Z,23.80
2018-05-25T07:50:29.507Z,21.40
2018-05-25T07:52:57.117Z,19.90
2018-05-25T07:55:25.469Z,22.70
2018-05-25T07:57:53.072Z,19.83
2018-05-25T08:00:21.497Z,18.40
2018-05-25T08:02:49.136Z,22.60
2018-05-25T08:05:17.999Z,22.03
2018-05-25T08:07:45.546Z,20.50
2018-05-25T08:10:13.175Z,20.63
2018-05-25T08:12:46.382Z,20.07
2018-05-25T08:15:13.968Z,22.43
2018-05-25T08:17:41.518Z,20.27
2018-05-25T08:20:09.823Z,18.50
2018-05-25T08:22:39.127Z,17.90
2018-05-25T08:25:06.694Z,19.83
2018-05-25T08:27:34.240Z,18.30
2018-05-25T08:30:01.794Z,19.03
2018-05-25T08:32:29.369Z,20.27
2018-05-25T08:34:56.954Z,19.60
2018-05-25T08:37:25.412Z,18.23
2018-05-25T08:39:52.968Z,18.27
2018-05-25T08:42:20.533Z,19.60
2018-05-25T08:44:48.074Z,18.93
2018-05-25T08:47:16.641Z,19.10
2018-05-25T08:49:44.219Z,16.87
2018-05-25T08:52:13.014Z,17.07
2018-05-25T08:54:40.595Z,16.13
2018-05-25T08:57:08.349Z,16.43
2018-05-25T08:59:35.907Z,15.67
2018-05-25T09:02:03.809Z,13.93
2018-05-25T09:04:45.808Z,13.33
2018-05-25T09:07:14.244Z,14.93
2018-05-25T09:09:41.837Z,14.27
2018-05-25T09:12:09.379Z,13.70
2018-05-25T09:14:36.924Z,12.37
2018-05-25T09:17:06.125Z,11.13
2018-05-25T09:19:33.684Z,12.17
2018-05-25T09:22:01.217Z,11.10
2018-05-25T09:24:28.764Z,10.77
2018-05-25T09:26:56.541Z,11.40
2018-05-25T09:29:24.115Z,10.83
2018-05-25T09:31:53.085Z,10.37
2018-05-25T09:34:20.627Z,11.10
2018-05-25T09:36:48.156Z,11.67
2018-05-25T09:39:16.499Z,9.60
2018-05-25T09:41:44.937Z,9.63
2018-05-25T09:44:13.258Z,10.00
2018-05-25T09:46:42.113Z,9.30
2018-05-25T09:49:09.662Z,9.70
2018-05-25T09:51:41.454Z,9.50
2018-05-25T09:54:09.023Z,8.40
2018-05-25T09:56:36.693Z,8.83
2018-05-25T09:59:04.263Z,8.53
2018-05-25T10:01:33.524Z,8.00
2018-05-25T10:04:01.078Z,7.90
2018-05-25T10:06:28.758Z,7.80
2018-05-25T10:08:56.328Z,7.20
2018-05-25T10:11:24.993Z,7.67
2018-05-25T10:13:52.553Z,8.20
2018-05-25T10:16:20.115Z,7.80
2018-05-25T10:18:47.677Z,6.97
2018-05-25T10:21:15.229Z,7.07
2018-05-25T10:23:42.792Z,6.40
2018-05-25T10:26:10.374Z,6.10
2018-05-25T10:28:37.923Z,6.13
2018-05-25T10:31:05.502Z,6.47
2018-05-25T10:33:33.028Z,6.37
2018-05-25T10:36:00.576Z,5.10
2018-05-25T10:38:28.136Z,5.73
2018-05-25T10:40:55.825Z,5.20
2018-05-25T10:43:23.382Z,5.00
2018-05-25T10:45:52.472Z,4.90
2018-05-25T10:48:20.020Z,4.60
2018-05-25T10:50:47.662Z,4.60
2018-05-25T10:53:15.257Z,4.13
2018-05-25T10:55:42.822Z,3.70
2018-05-25T10:58:10.400Z,4.17
2018-05-25T11:00:38.683Z,4.17
2018-05-25T11:03:07.014Z,4.10
2018-05-25T11:05:36.074Z,3.77
2018-05-25T11:08:03.603Z,3.93
2018-05-25T11:10:31.164Z,3.63
2018-05-25T11:12:58.730Z,3.50
2018-05-25T11:15:26.288Z,3.60
2018-05-25T11:17:54.649Z,3.63
2018-05-25T11:20:23.556Z,4.10
2018-05-25T11:22:54.706Z,4.10
2018-05-25T11:25:24.152Z,3.90
2018-05-25T11:27:51.736Z,4.00
2018-05-25T11:30:19.299Z,3.60
2018-05-25T11:32:46.858Z,4.13
2018-05-25T11:35:14.537Z,3.70
2018-05-25T11:37:42.868Z,3.50
2018-05-25T11:40:10.422Z,3.47
2018-05-25T11:42:39.415Z,3.80
2018-05-25T11:45:06.974Z,3.60
2018-05-25T11:47:35.042Z,3.90
2018-05-25T11:50:02.616Z,3.80
2018-05-25T11:52:31.469Z,3.47
2018-05-25T11:54:59.008Z,3.67
2018-05-25T11:57:27.340Z,4.03
2018-05-25T11:59:54.888Z,3.57
2018-05-25T12:02:24.026Z,3.63
2018-05-25T12:04:51.574Z,3.77
2018-05-25T12:07:19.129Z,3.70
2018-05-25T12:09:46.675Z,3.53
2018-05-25T12:12:14.955Z,3.70
2018-05-25T12:14:42.566Z,3.73
2018-05-25T12:17:10.852Z,3.50
2018-05-25T12:19:38.388Z,3.90
2018-05-25T12:22:07.640Z,3.67
2018-05-25T12:24:35.200Z,3.80
2018-05-25T12:27:02.758Z,3.40
2018-05-25T12:29:30.333Z,3.40
2018-05-25T12:31:57.873Z,3.20
2018-05-25T12:34:25.445Z,3.30
2018-05-25T12:36:52.993Z,3.67
2018-05-25T12:39:20.551Z,3.70
2018-05-25T12:41:48.134Z,3.50
2018-05-25T12:44:15.696Z,3.10
2018-05-25T12:46:43.238Z,3.57
2018-05-25T12:49:10.815Z,3.10
2018-05-25T12:51:38.364Z,3.20
2018-05-25T12:54:05.957Z,2.97
2018-05-25T12:56:35.982Z,2.90
2018-05-25T12:59:03.530Z,3.30
2018-05-25T13:01:31.860Z,3.10
2018-05-25T13:03:59.496Z,2.90
2018-05-25T13:06:28.849Z,3.33
2018-05-25T13:08:56.412Z,3.33
2018-05-25T13:11:25.967Z,3.30
2018-05-25T13:13:53.528Z,3.20
2018-05-25T13:16:22.233Z,3.20
2018-05-25T13:18:49.774Z,2.80
2018-05-25T13:21:17.336Z,3.50
2018-05-25T13:23:44.918Z,3.37
2018-05-25T13:26:12.489Z,2.80
2018-05-25T13:28:40.051Z,3.10
2018-05-25T13:31:09.127Z,2.80
2018-05-25T13:33:36.668Z,2.83
2018-05-25T13:36:04.211Z,3.00
2018-05-25T13:38:31.749Z,2.77
2018-05-25T13:41:00.767Z,2.70
2018-05-25T13:43:28.325Z,3.00
2018-05-25T13:45:55.880Z,3.13
2018-05-25T13:48:24.198Z,2.43
2018-05-25T13:50:53.313Z,2.43
2018-05-25T13:53:21.632Z,2.77
2018-05-25T13:55:49.192Z,2.53
2018-05-25T13:58:16.769Z,2.37
2018-05-25T14:00:45.432Z,2.60
2018-05-25T14:03:12.999Z,2.40
2018-05-25T14:05:40.568Z,2.57
2018-05-25T14:08:08.163Z,2.30
2018-05-25T14:10:37.593Z,2.67
2018-05-25T14:13:05.900Z,2.47
2018-05-25T14:15:33.671Z,2.70
2018-05-25T14:18:01.225Z,2.30
2018-05-25T14:20:30.133Z,2.40
2018-05-25T14:22:57.683Z,2.50
2018-05-25T14:25:25.225Z,2.50
2018-05-25T14:27:52.788Z,2.33
2018-05-25T14:30:22.168Z,2.50
2018-05-25T14:32:49.789Z,2.60
2018-05-25T14:35:17.433Z,2.70
2018-05-25T14:37:44.989Z,2.60
2018-05-25T14:40:12.620Z,2.60
2018-05-25T14:42:40.189Z,2.70
2018-05-25T14:45:07.768Z,2.50
2018-05-25T14:47:36.566Z,2.60
2018-05-25T14:50:04.193Z,2.60
2018-05-25T14:52:32.963Z,2.50
2018-05-25T14:55:01.272Z,2.90
2018-05-25T14:57:28.925Z,2.63
2018-05-25T14:59:56.494Z,2.43
2018-05-25T15:02:25.347Z,2.60
2018-05-25T15:04:52.917Z,2.53
2018-05-25T15:07:21.638Z,2.37
2018-05-25T15:09:49.217Z,2.40
2018-05-25T15:12:18.174Z,2.40
2018-05-25T15:14:45.797Z,2.57
2018-05-25T15:17:16.076Z,2.43
2018-05-25T15:19:43.645Z,2.20
2018-05-25T15:22:11.187Z,2.50
2018-05-25T15:24:38.753Z,2.10
2018-05-25T15:27:07.498Z,2.57
2018-05-25T15:29:35.498Z,2.30
2018-05-25T15:32:11.580Z,2.50
2018-05-25T15:34:40.436Z,2.37
2018-05-25T15:37:08.277Z,2.67
2018-05-25T15:39:44.714Z,2.67
2018-05-25T15:42:15.154Z,2.50
2018-05-25T15:47:23.588Z,2.43
2018-05-25T15:49:53.661Z,2.40
2018-05-25T15:52:21.333Z,2.27
2018-05-25T15:54:49.115Z,2.50
2018-05-25T15:57:18.030Z,2.40
2018-05-25T15:59:46.231Z,1.97
2018-05-25T16:02:13.970Z,2.40
2018-05-25T16:04:42.429Z,2.10
2018-05-25T16:07:15.145Z,2.20
2018-05-25T16:09:43.209Z,1.93
2018-05-25T16:12:11.979Z,2.13
2018-05-25T16:14:41.271Z,2.13
2018-05-25T16:17:09.626Z,2.30
2018-05-25T16:19:37.552Z,2.10
2018-05-25T16:22:09.000Z,1.97
2018-05-25T16:24:43.348Z,2.10
2018-05-25T16:27:18.177Z,2.10
2018-05-25T16:29:52.313Z,2.17
2018-05-25T16:32:21.208Z,2.07
2018-05-25T16:34:49.620Z,2.00
2018-05-25T16:37:19.061Z,2.20
2018-05-25T16:39:46.647Z,1.90
2018-05-25T16:42:16.776Z,1.90
2018-05-25T16:44:44.378Z,2.20
2018-05-25T16:47:11.960Z,2.37
2018-05-25T16:49:39.525Z,2.10
2018-05-25T16:52:07.133Z,2.00
2018-05-25T16:54:34.661Z,2.17
2018-05-25T16:57:02.215Z,1.90
2018-05-25T16:59:31.945Z,2.17
2018-05-25T17:01:59.850Z,2.40
2018-05-25T17:04:27.473Z,2.13
2018-05-25T17:06:56.235Z,2.10
2018-05-25T17:09:24.664Z,2.17
2018-05-25T17:11:58.561Z,2.40
2018-05-25T17:14:27.672Z,2.20
2018-05-25T17:16:59.825Z,2.60
2018-05-25T17:19:27.473Z,2.27
2018-05-25T17:21:55.443Z,2.20
2018-05-25T17:24:23.238Z,2.57
2018-05-25T17:26:53.787Z,2.90
2018-05-25T17:29:22.019Z,3.20
2018-05-25T17:31:50.406Z,4.10
2018-05-25T17:34:17.920Z,4.70
2018-05-25T17:36:46.240Z,4.40
2018-05-25T17:39:14.921Z,4.63
2018-05-25T17:41:46.437Z,4.77
2018-05-25T17:44:15.760Z,4.77
2018-05-25T17:46:44.327Z,4.70
2018-05-25T17:49:11.909Z,4.60
2018-05-25T17:51:39.812Z,5.30
2018-05-25T17:54:07.347Z,4.73
2018-05-25T17:56:35.028Z,5.00
2018-05-25T17:59:02.590Z,4.60
2018-05-25T18:01:31.659Z,5.30
2018-05-25T18:03:59.224Z,4.90
2018-05-25T18:06:26.949Z,5.07
2018-05-25T18:08:55.351Z,5.00
2018-05-25T18:11:24.317Z,5.20
2018-05-25T18:13:51.976Z,5.60
2018-05-25T18:16:19.637Z,5.93
2018-05-25T18:18:47.237Z,5.00
2018-05-25T18:21:14.835Z,5.50
2018-05-25T18:23:43.473Z,5.53
2018-05-25T18:34:56.121Z,5.50
2018-05-25T18:37:27.280Z,6.10
2018-05-25T18:39:54.881Z,6.10
2018-05-25T18:42:22.445Z,5.93
2018-05-25T18:44:50.001Z,5.87
2018-05-25T18:47:19.166Z,7.20
2018-05-25T18:49:47.689Z,6.03
2018-05-25T18:52:17.441Z,6.40
2018-05-25T18:54:45.001Z,5.93
2018-05-25T18:57:13.825Z,5.63
2018-05-25T18:59:41.507Z,6.17
2018-05-25T19:02:10.305Z,6.00
2018-05-25T19:04:38.677Z,6.60
2018-05-25T19:07:06.640Z,6.23
2018-05-25T19:09:34.212Z,6.53
2018-05-25T19:12:02.991Z,6.13
2018-05-25T19:14:31.325Z,6.87
2018-05-25T19:16:58.908Z,6.60
2018-05-25T19:19:26.554Z,6.70
2018-05-25T19:21:54.852Z,6.60
2018-05-25T19:24:23.482Z,7.10
2018-05-25T19:26:55.101Z,6.60
2018-05-25T19:29:22.730Z,7.33
2018-05-25T19:31:51.759Z,7.63
2018-05-25T19:34:19.341Z,6.90
2018-05-25T19:36:48.022Z,7.17
2018-05-25T19:39:15.602Z,7.00
2018-05-25T19:41:54.046Z,7.60
2018-05-25T19:44:21.684Z,7.50
2018-05-25T19:46:49.331Z,7.20
2018-05-25T19:49:16.941Z,10.47
2018-05-25T19:51:46.252Z,9.17
2018-05-25T19:54:13.847Z,8.03
2018-05-25T19:56:41.534Z,7.73
2018-05-25T19:59:09.128Z,7.83
2018-05-25T20:01:37.637Z,7.77
2018-05-25T20:04:05.275Z,7.83
2018-05-25T20:06:34.233Z,8.03
2018-05-25T20:09:01.799Z,7.93
2018-05-25T20:11:30.835Z,6.97
2018-05-25T20:13:58.384Z,7.17
2018-05-25T20:16:26.882Z,7.07
2018-05-25T20:18:54.574Z,7.87
2018-05-25T20:21:23.814Z,7.67
2018-05-25T20:23:51.423Z,7.93
2018-05-25T20:26:20.173Z,8.53
2018-05-25T20:28:48.549Z,8.50
2018-05-25T20:31:16.945Z,7.70
2018-05-25T20:33:44.680Z,12.47
2018-05-25T20:36:12.370Z,9.33
2018-05-25T20:38:40.013Z,9.77
2018-05-25T20:41:09.650Z,10.17
2018-05-25T20:43:37.274Z,9.00
2018-05-25T20:46:05.009Z,7.93
2018-05-25T20:48:45.360Z,7.87
2018-05-25T20:51:14.578Z,8.20
2018-05-25T20:53:43.102Z,8.63
2018-05-25T20:56:11.888Z,8.57
2018-05-25T20:58:39.505Z,8.17
2018-05-25T21:01:08.374Z,8.00
2018-05-25T21:03:36.115Z,8.33
2018-05-25T21:06:27.761Z,8.50
2018-05-25T21:08:55.365Z,8.80
2018-05-25T21:11:31.849Z,8.00
2018-05-25T21:13:59.476Z,8.50
2018-05-25T21:16:33.839Z,9.10
2018-05-25T21:19:01.461Z,8.73
2018-05-25T21:21:30.161Z,9.17
2018-05-25T21:24:02.359Z,8.57
2018-05-25T21:26:36.838Z,8.90
2018-05-25T21:29:05.424Z,8.77
2018-05-25T21:31:34.553Z,9.30
2018-05-25T21:34:02.104Z,7.60
2018-05-25T21:36:31.436Z,8.67
2018-05-25T21:38:59.084Z,8.87
2018-05-25T21:41:28.124Z,9.43
2018-05-25T21:43:55.757Z,10.70
2018-05-25T21:46:24.281Z,9.87
2018-05-25T21:48:52.746Z,9.13
2018-05-25T21:51:23.594Z,9.60
2018-05-25T21:53:51.976Z,9.77
2018-05-25T21:56:20.870Z,9.73
2018-05-25T21:58:49.300Z,10.03
2018-05-25T22:01:16.902Z,9.17
2018-05-25T22:03:45.290Z,11.10
2018-05-25T22:06:14.582Z,10.17
2018-05-25T22:08:42.968Z,10.30
2018-05-25T22:11:10.547Z,9.93
2018-05-25T22:13:38.122Z,11.60
2018-05-25T22:16:07.506Z,10.00
2018-05-25T22:18:35.137Z,9.60
2018-05-25T22:21:04.058Z,9.87
2018-05-25T22:23:32.484Z,10.00
2018-05-25T22:26:01.621Z,10.47
2018-05-25T22:28:29.212Z,10.57
2018-05-25T22:30:57.904Z,10.63
2018-05-25T22:33:25.564Z,10.53
2018-05-25T22:35:54.333Z,10.90
2018-05-25T22:38:22.913Z,11.63
2018-05-25T22:40:51.749Z,11.60
2018-05-25T22:43:31.168Z,11.50
2018-05-25T22:49:04.528Z,11.70
2018-05-25T22:51:44.099Z,12.47
2018-05-25T22:54:17.468Z,11.73
2018-05-25T22:56:45.128Z,12.57
2018-05-25T22:59:13.571Z,12.30
2018-05-25T23:01:41.173Z,12.80
2018-05-25T23:04:08.756Z,13.23
2018-05-25T23:06:47.065Z,12.93
2018-05-25T23:12:08.983Z,13.30
2018-05-25T23:14:37.372Z,14.30
2018-05-25T23:17:05.008Z,13.87
2018-05-25T23:19:33.442Z,13.73
2018-05-25T23:22:01.013Z,14.03
2018-05-25T23:24:28.681Z,14.90
2018-05-25T23:26:57.249Z,15.23
2018-05-25T23:29:24.816Z,15.57
2018-05-25T23:31:52.472Z,16.00
2018-05-25T23:34:20.117Z,15.30
2018-05-25T23:36:49.549Z,14.13
2018-05-25T23:39:17.202Z,13.80
2018-05-25T23:41:44.779Z,15.00
2018-05-25T23:44:12.401Z,13.97
2018-05-25T23:46:41.553Z,13.50
2018-05-25T23:49:09.929Z,15.57
2018-05-25T23:51:38.374Z,15.13
2018-05-25T23:54:05.985Z,15.10
2018-05-25T23:56:35.835Z,15.87
2018-05-25T23:59:03.442Z,15.70
